sensor_id;sensor_type;location;lat;lon;timestamp;P1;durP1;ratioP1;P2;durP2;ratioP2
62071;SDS011;48031;48.542;13.232;2023-07-31T00:03:10;1.17;;;1.00;;
62071;SDS011;48031;48.542;13.232;2023-07-31T00:07:13;3.97;;;0.98;;
62071;SDS011;48031;48.542;13.232;2023-07-31T00:11:15;0.95;;;0.93;;
62071;SDS011;48031;48.542;13.232;2023-07-31T00:15:17;1.77;;;1.10;;
62071;SDS011;48031;48.542;13.232;2023-07-31T00:19:19;0.90;;;0.90;;
62071;SDS011;48031;48.542;13.232;2023-07-31T00:23:22;1.92;;;1.00;;
62071;SDS011;48031;48.542;13.232;2023-07-31T00:27:24;0.93;;;0.82;;
62071;SDS011;48031;48.542;13.232;2023-07-31T00:31:26;1.67;;;1.00;;
62071;SDS011;48031;48.542;13.232;2023-07-31T00:35:29;1.25;;;0.90;;
62071;SDS011;48031;48.542;13.232;2023-07-31T00:39:33;1.73;;;1.00;;
62071;SDS011;48031;48.542;13.232;2023-07-31T00:43:36;2.08;;;1.08;;
62071;SDS011;48031;48.542;13.232;2023-07-31T00:47:38;1.73;;;1.00;;
62071;SDS011;48031;48.542;13.232;2023-07-31T00:51:40;1.38;;;1.08;;
62071;SDS011;48031;48.542;13.232;2023-07-31T00:55:43;1.80;;;0.93;;
62071;SDS011;48031;48.542;13.232;2023-07-31T00:59:48;1.05;;;0.90;;
62071;SDS011;48031;48.542;13.232;2023-07-31T01:03:50;1.20;;;1.10;;
62071;SDS011;48031;48.542;13.232;2023-07-31T01:08:42;1.00;;;1.00;;
62071;SDS011;48031;48.542;13.232;2023-07-31T01:12:26;1.88;;;1.15;;
62071;SDS011;48031;48.542;13.232;2023-07-31T01:16:31;1.25;;;1.15;;
62071;SDS011;48031;48.542;13.232;2023-07-31T01:20:35;1.38;;;0.90;;
62071;SDS011;48031;48.542;13.232;2023-07-31T01:24:55;0.88;;;0.85;;
62071;SDS011;48031;48.542;13.232;2023-07-31T01:33:23;0.77;;;0.77;;
62071;SDS011;48031;48.542;13.232;2023-07-31T01:37:28;3.72;;;1.02;;
62071;SDS011;48031;48.542;13.232;2023-07-31T01:41:34;0.80;;;0.77;;
62071;SDS011;48031;48.542;13.232;2023-07-31T01:45:36;0.70;;;0.70;;
62071;SDS011;48031;48.542;13.232;2023-07-31T01:49:39;1.70;;;0.93;;
62071;SDS011;48031;48.542;13.232;2023-07-31T01:53:41;1.77;;;0.80;;
62071;SDS011;48031;48.542;13.232;2023-07-31T01:57:43;1.70;;;0.90;;
62071;SDS011;48031;48.542;13.232;2023-07-31T02:01:45;1.55;;;0.90;;
62071;SDS011;48031;48.542;13.232;2023-07-31T02:05:47;1.13;;;0.80;;
62071;SDS011;48031;48.542;13.232;2023-07-31T02:09:51;0.82;;;0.82;;
62071;SDS011;48031;48.542;13.232;2023-07-31T02:13:54;1.10;;;0.90;;
62071;SDS011;48031;48.542;13.232;2023-07-31T02:17:55;0.85;;;0.82;;
62071;SDS011;48031;48.542;13.232;2023-07-31T02:21:59;1.85;;;0.90;;
62071;SDS011;48031;48.542;13.232;2023-07-31T02:26:02;1.63;;;0.90;;
62071;SDS011;48031;48.542;13.232;2023-07-31T02:30:04;1.00;;;0.80;;
62071;SDS011;48031;48.542;13.232;2023-07-31T02:34:07;1.58;;;0.80;;
62071;SDS011;48031;48.542;13.232;2023-07-31T02:38:08;0.82;;;0.77;;
62071;SDS011;48031;48.542;13.232;2023-07-31T02:42:10;0.88;;;0.80;;
62071;SDS011;48031;48.542;13.232;2023-07-31T02:46:13;0.70;;;0.70;;
62071;SDS011;48031;48.542;13.232;2023-07-31T02:50:15;2.35;;;0.90;;
62071;SDS011;48031;48.542;13.232;2023-07-31T02:54:18;1.20;;;0.70;;
62071;SDS011;48031;48.542;13.232;2023-07-31T02:58:21;1.02;;;0.77;;
62071;SDS011;48031;48.542;13.232;2023-07-31T03:02:25;1.10;;;1.00;;
62071;SDS011;48031;48.542;13.232;2023-07-31T03:06:27;1.98;;;0.95;;
62071;SDS011;48031;48.542;13.232;2023-07-31T03:10:29;0.77;;;0.73;;
62071;SDS011;48031;48.542;13.232;2023-07-31T03:14:32;0.98;;;0.80;;
62071;SDS011;48031;48.542;13.232;2023-07-31T03:18:35;0.80;;;0.80;;
62071;SDS011;48031;48.542;13.232;2023-07-31T03:22:38;1.10;;;0.90;;
62071;SDS011;48031;48.542;13.232;2023-07-31T03:26:41;1.88;;;1.08;;
62071;SDS011;48031;48.542;13.232;2023-07-31T03:30:45;1.00;;;0.90;;
62071;SDS011;48031;48.542;13.232;2023-07-31T03:34:47;1.02;;;0.90;;
62071;SDS011;48031;48.542;13.232;2023-07-31T03:38:50;1.35;;;0.80;;
62071;SDS011;48031;48.542;13.232;2023-07-31T03:42:53;1.90;;;0.82;;
62071;SDS011;48031;48.542;13.232;2023-07-31T03:46:55;1.00;;;0.80;;
62071;SDS011;48031;48.542;13.232;2023-07-31T03:50:57;1.35;;;0.90;;
62071;SDS011;48031;48.542;13.232;2023-07-31T03:55:02;1.15;;;0.75;;
62071;SDS011;48031;48.542;13.232;2023-07-31T03:59:05;1.48;;;0.90;;
62071;SDS011;48031;48.542;13.232;2023-07-31T04:03:07;0.70;;;0.70;;
62071;SDS011;48031;48.542;13.232;2023-07-31T04:07:09;1.88;;;0.88;;
62071;SDS011;48031;48.542;13.232;2023-07-31T04:11:12;1.42;;;0.70;;
62071;SDS011;48031;48.542;13.232;2023-07-31T04:15:14;1.63;;;0.88;;
62071;SDS011;48031;48.542;13.232;2023-07-31T04:19:17;1.10;;;0.90;;
62071;SDS011;48031;48.542;13.232;2023-07-31T04:23:20;1.35;;;0.80;;
62071;SDS011;48031;48.542;13.232;2023-07-31T04:27:24;1.55;;;0.98;;
62071;SDS011;48031;48.542;13.232;2023-07-31T04:31:27;1.10;;;1.00;;
62071;SDS011;48031;48.542;13.232;2023-07-31T04:35:29;2.45;;;1.00;;
62071;SDS011;48031;48.542;13.232;2023-07-31T04:39:31;1.02;;;0.95;;
62071;SDS011;48031;48.542;13.232;2023-07-31T04:43:33;0.93;;;0.75;;
62071;SDS011;48031;48.542;13.232;2023-07-31T04:47:36;2.30;;;0.75;;
62071;SDS011;48031;48.542;13.232;2023-07-31T04:51:39;0.85;;;0.85;;
62071;SDS011;48031;48.542;13.232;2023-07-31T04:55:41;1.30;;;0.88;;
62071;SDS011;48031;48.542;13.232;2023-07-31T04:59:43;2.15;;;1.02;;
62071;SDS011;48031;48.542;13.232;2023-07-31T05:03:45;1.50;;;0.98;;
62071;SDS011;48031;48.542;13.232;2023-07-31T05:07:47;1.40;;;1.00;;
62071;SDS011;48031;48.542;13.232;2023-07-31T05:11:50;3.25;;;1.33;;
62071;SDS011;48031;48.542;13.232;2023-07-31T05:15:52;1.27;;;1.17;;
62071;SDS011;48031;48.542;13.232;2023-07-31T05:19:56;1.00;;;0.88;;
62071;SDS011;48031;48.542;13.232;2023-07-31T05:23:59;0.95;;;0.88;;
62071;SDS011;48031;48.542;13.232;2023-07-31T05:28:01;1.23;;;1.02;;
62071;SDS011;48031;48.542;13.232;2023-07-31T05:32:03;1.10;;;1.00;;
62071;SDS011;48031;48.542;13.232;2023-07-31T05:36:06;1.40;;;0.88;;
62071;SDS011;48031;48.542;13.232;2023-07-31T05:40:09;1.00;;;0.90;;
62071;SDS011;48031;48.542;13.232;2023-07-31T05:44:11;0.82;;;0.82;;
62071;SDS011;48031;48.542;13.232;2023-07-31T05:48:13;1.00;;;0.90;;
62071;SDS011;48031;48.542;13.232;2023-07-31T05:52:16;0.95;;;0.90;;
62071;SDS011;48031;48.542;13.232;2023-07-31T05:56:18;1.30;;;0.88;;
62071;SDS011;48031;48.542;13.232;2023-07-31T06:00:20;1.23;;;0.90;;
62071;SDS011;48031;48.542;13.232;2023-07-31T06:04:23;0.88;;;0.88;;
62071;SDS011;48031;48.542;13.232;2023-07-31T06:08:28;0.70;;;0.70;;
62071;SDS011;48031;48.542;13.232;2023-07-31T06:12:30;1.75;;;0.88;;
62071;SDS011;48031;48.542;13.232;2023-07-31T06:16:33;1.30;;;1.02;;
62071;SDS011;48031;48.542;13.232;2023-07-31T06:20:35;1.27;;;1.17;;
62071;SDS011;48031;48.542;13.232;2023-07-31T06:24:38;1.65;;;1.05;;
62071;SDS011;48031;48.542;13.232;2023-07-31T06:28:41;3.10;;;1.17;;
62071;SDS011;48031;48.542;13.232;2023-07-31T06:32:44;1.63;;;1.20;;
62071;SDS011;48031;48.542;13.232;2023-07-31T06:36:46;1.75;;;1.02;;
62071;SDS011;48031;48.542;13.232;2023-07-31T06:40:48;1.40;;;1.08;;
62071;SDS011;48031;48.542;13.232;2023-07-31T06:44:50;2.15;;;1.27;;
62071;SDS011;48031;48.542;13.232;2023-07-31T06:48:52;2.03;;;1.35;;
62071;SDS011;48031;48.542;13.232;2023-07-31T06:52:54;2.08;;;1.23;;
62071;SDS011;48031;48.542;13.232;2023-07-31T06:56:56;1.73;;;1.20;;
62071;SDS011;48031;48.542;13.232;2023-07-31T07:00:59;2.65;;;1.33;;
62071;SDS011;48031;48.542;13.232;2023-07-31T07:05:01;2.70;;;1.52;;
62071;SDS011;48031;48.542;13.232;2023-07-31T07:09:03;1.20;;;1.10;;
62071;SDS011;48031;48.542;13.232;2023-07-31T07:13:06;1.80;;;1.30;;
62071;SDS011;48031;48.542;13.232;2023-07-31T07:17:08;2.50;;;1.27;;
62071;SDS011;48031;48.542;13.232;2023-07-31T07:21:10;1.55;;;1.23;;
62071;SDS011;48031;48.542;13.232;2023-07-31T07:25:16;2.25;;;1.40;;
62071;SDS011;48031;48.542;13.232;2023-07-31T07:29:18;1.80;;;1.30;;
62071;SDS011;48031;48.542;13.232;2023-07-31T07:33:21;2.67;;;1.40;;
62071;SDS011;48031;48.542;13.232;2023-07-31T07:37:23;1.90;;;1.20;;
62071;SDS011;48031;48.542;13.232;2023-07-31T07:41:25;3.78;;;1.38;;
62071;SDS011;48031;48.542;13.232;2023-07-31T07:45:27;2.00;;;1.13;;
62071;SDS011;48031;48.542;13.232;2023-07-31T07:49:29;1.83;;;1.27;;
62071;SDS011;48031;48.542;13.232;2023-07-31T07:53:32;1.45;;;1.13;;
62071;SDS011;48031;48.542;13.232;2023-07-31T07:57:34;1.05;;;1.00;;
62071;SDS011;48031;48.542;13.232;2023-07-31T08:01:36;2.63;;;1.40;;
62071;SDS011;48031;48.542;13.232;2023-07-31T08:05:38;3.85;;;1.20;;
62071;SDS011;48031;48.542;13.232;2023-07-31T08:09:40;1.52;;;1.10;;
62071;SDS011;48031;48.542;13.232;2023-07-31T08:13:43;3.50;;;1.30;;
62071;SDS011;48031;48.542;13.232;2023-07-31T08:17:45;2.60;;;1.10;;
62071;SDS011;48031;48.542;13.232;2023-07-31T08:21:48;2.88;;;1.17;;
62071;SDS011;48031;48.542;13.232;2023-07-31T08:25:50;2.15;;;1.17;;
62071;SDS011;48031;48.542;13.232;2023-07-31T08:29:52;1.55;;;1.27;;
62071;SDS011;48031;48.542;13.232;2023-07-31T08:33:54;3.30;;;1.20;;
62071;SDS011;48031;48.542;13.232;2023-07-31T08:37:57;2.90;;;1.13;;
62071;SDS011;48031;48.542;13.232;2023-07-31T08:42:00;2.10;;;1.20;;
62071;SDS011;48031;48.542;13.232;2023-07-31T08:46:02;1.65;;;1.00;;
62071;SDS011;48031;48.542;13.232;2023-07-31T08:50:05;2.03;;;1.30;;
62071;SDS011;48031;48.542;13.232;2023-07-31T08:54:08;1.30;;;1.10;;
62071;SDS011;48031;48.542;13.232;2023-07-31T08:58:10;3.55;;;1.20;;
62071;SDS011;48031;48.542;13.232;2023-07-31T09:02:14;1.65;;;1.17;;
62071;SDS011;48031;48.542;13.232;2023-07-31T09:06:18;2.55;;;1.30;;
62071;SDS011;48031;48.542;13.232;2023-07-31T09:10:23;1.65;;;1.15;;
62071;SDS011;48031;48.542;13.232;2023-07-31T09:14:26;1.85;;;1.30;;
62071;SDS011;48031;48.542;13.232;2023-07-31T09:18:28;3.05;;;1.05;;
62071;SDS011;48031;48.542;13.232;2023-07-31T09:22:34;1.70;;;1.30;;
62071;SDS011;48031;48.542;13.232;2023-07-31T09:26:37;2.15;;;1.10;;
62071;SDS011;48031;48.542;13.232;2023-07-31T09:30:50;1.13;;;1.02;;
62071;SDS011;48031;48.542;13.232;2023-07-31T09:34:52;4.90;;;1.08;;
62071;SDS011;48031;48.542;13.232;2023-07-31T09:38:55;1.15;;;0.90;;
62071;SDS011;48031;48.542;13.232;2023-07-31T09:42:58;1.45;;;1.20;;
62071;SDS011;48031;48.542;13.232;2023-07-31T09:47:03;1.65;;;1.10;;
62071;SDS011;48031;48.542;13.232;2023-07-31T09:51:06;1.90;;;1.10;;
62071;SDS011;48031;48.542;13.232;2023-07-31T09:55:08;2.85;;;1.33;;
62071;SDS011;48031;48.542;13.232;2023-07-31T09:59:18;1.42;;;1.00;;
62071;SDS011;48031;48.542;13.232;2023-07-31T10:03:25;1.85;;;1.00;;
62071;SDS011;48031;48.542;13.232;2023-07-31T10:07:30;1.33;;;1.08;;
62071;SDS011;48031;48.542;13.232;2023-07-31T10:11:37;1.23;;;0.90;;
62071;SDS011;48031;48.542;13.232;2023-07-31T10:15:42;2.80;;;1.42;;
62071;SDS011;48031;48.542;13.232;2023-07-31T10:19:45;3.08;;;1.10;;
62071;SDS011;48031;48.542;13.232;2023-07-31T10:23:48;2.75;;;1.45;;
62071;SDS011;48031;48.542;13.232;2023-07-31T10:27:52;1.38;;;1.20;;
62071;SDS011;48031;48.542;13.232;2023-07-31T10:31:56;2.05;;;1.30;;
62071;SDS011;48031;48.542;13.232;2023-07-31T10:36:13;1.15;;;1.05;;
62071;SDS011;48031;48.542;13.232;2023-07-31T10:40:28;3.22;;;1.35;;
62071;SDS011;48031;48.542;13.232;2023-07-31T10:44:30;1.80;;;1.40;;
62071;SDS011;48031;48.542;13.232;2023-07-31T10:48:33;2.08;;;1.20;;
62071;SDS011;48031;48.542;13.232;2023-07-31T10:52:36;2.15;;;1.30;;
62071;SDS011;48031;48.542;13.232;2023-07-31T10:56:38;2.47;;;1.40;;
62071;SDS011;48031;48.542;13.232;2023-07-31T11:00:43;2.65;;;1.33;;
62071;SDS011;48031;48.542;13.232;2023-07-31T11:04:46;1.50;;;1.40;;
62071;SDS011;48031;48.542;13.232;2023-07-31T11:09:08;2.63;;;1.50;;
62071;SDS011;48031;48.542;13.232;2023-07-31T11:13:16;1.42;;;1.08;;
62071;SDS011;48031;48.542;13.232;2023-07-31T11:17:18;1.50;;;1.40;;
62071;SDS011;48031;48.542;13.232;2023-07-31T11:21:21;1.48;;;1.38;;
62071;SDS011;48031;48.542;13.232;2023-07-31T11:25:24;1.95;;;1.38;;
62071;SDS011;48031;48.542;13.232;2023-07-31T11:29:27;1.77;;;1.25;;
62071;SDS011;48031;48.542;13.232;2023-07-31T11:33:29;1.67;;;1.42;;
62071;SDS011;48031;48.542;13.232;2023-07-31T11:37:41;1.30;;;1.20;;
62071;SDS011;48031;48.542;13.232;2023-07-31T11:41:44;1.50;;;1.30;;
62071;SDS011;48031;48.542;13.232;2023-07-31T11:45:46;1.35;;;1.25;;
62071;SDS011;48031;48.542;13.232;2023-07-31T11:49:56;1.20;;;1.10;;
62071;SDS011;48031;48.542;13.232;2023-07-31T11:54:00;1.83;;;1.45;;
62071;SDS011;48031;48.542;13.232;2023-07-31T11:58:03;2.28;;;1.30;;
62071;SDS011;48031;48.542;13.232;2023-07-31T12:02:06;2.03;;;1.45;;
62071;SDS011;48031;48.542;13.232;2023-07-31T12:06:08;1.88;;;1.25;;
62071;SDS011;48031;48.542;13.232;2023-07-31T12:10:10;1.83;;;1.23;;
62071;SDS011;48031;48.542;13.232;2023-07-31T12:14:23;1.40;;;1.30;;
62071;SDS011;48031;48.542;13.232;2023-07-31T12:18:27;2.38;;;1.30;;
62071;SDS011;48031;48.542;13.232;2023-07-31T12:22:31;1.63;;;1.20;;
62071;SDS011;48031;48.542;13.232;2023-07-31T12:26:34;2.15;;;1.23;;
62071;SDS011;48031;48.542;13.232;2023-07-31T12:30:36;1.30;;;1.20;;
62071;SDS011;48031;48.542;13.232;2023-07-31T12:34:42;1.63;;;1.25;;
62071;SDS011;48031;48.542;13.232;2023-07-31T12:42:48;1.20;;;1.10;;
62071;SDS011;48031;48.542;13.232;2023-07-31T12:46:50;1.27;;;1.17;;
62071;SDS011;48031;48.542;13.232;2023-07-31T12:50:51;1.95;;;1.20;;
62071;SDS011;48031;48.542;13.232;2023-07-31T12:54:53;1.90;;;1.27;;
62071;SDS011;48031;48.542;13.232;2023-07-31T12:58:55;1.90;;;1.10;;
62071;SDS011;48031;48.542;13.232;2023-07-31T13:02:57;1.20;;;1.10;;
62071;SDS011;48031;48.542;13.232;2023-07-31T13:07:02;1.38;;;1.10;;
62071;SDS011;48031;48.542;13.232;2023-07-31T13:11:04;1.50;;;1.10;;
62071;SDS011;48031;48.542;13.232;2023-07-31T13:15:07;1.27;;;1.17;;
62071;SDS011;48031;48.542;13.232;2023-07-31T13:19:09;1.42;;;1.10;;
62071;SDS011;48031;48.542;13.232;2023-07-31T13:23:11;1.20;;;1.10;;
62071;SDS011;48031;48.542;13.232;2023-07-31T13:27:13;1.35;;;1.25;;
62071;SDS011;48031;48.542;13.232;2023-07-31T13:31:16;2.05;;;1.30;;
62071;SDS011;48031;48.542;13.232;2023-07-31T13:35:18;2.55;;;1.33;;
62071;SDS011;48031;48.542;13.232;2023-07-31T13:39:20;1.40;;;1.30;;
62071;SDS011;48031;48.542;13.232;2023-07-31T13:43:23;1.73;;;1.30;;
62071;SDS011;48031;48.542;13.232;2023-07-31T13:47:25;1.20;;;1.20;;
62071;SDS011;48031;48.542;13.232;2023-07-31T13:51:27;1.42;;;1.17;;
62071;SDS011;48031;48.542;13.232;2023-07-31T13:55:30;1.88;;;1.42;;
62071;SDS011;48031;48.542;13.232;2023-07-31T13:59:33;1.30;;;1.20;;
62071;SDS011;48031;48.542;13.232;2023-07-31T14:03:36;1.63;;;1.38;;
62071;SDS011;48031;48.542;13.232;2023-07-31T14:07:39;1.40;;;1.30;;
62071;SDS011;48031;48.542;13.232;2023-07-31T14:11:42;0.90;;;0.90;;
62071;SDS011;48031;48.542;13.232;2023-07-31T14:15:44;2.80;;;1.30;;
62071;SDS011;48031;48.542;13.232;2023-07-31T14:19:46;1.20;;;1.10;;
62071;SDS011;48031;48.542;13.232;2023-07-31T14:23:49;1.40;;;1.30;;
62071;SDS011;48031;48.542;13.232;2023-07-31T14:27:51;2.10;;;1.95;;
62071;SDS011;48031;48.542;13.232;2023-07-31T14:31:53;1.77;;;1.00;;
62071;SDS011;48031;48.542;13.232;2023-07-31T14:35:55;1.58;;;1.30;;
62071;SDS011;48031;48.542;13.232;2023-07-31T14:39:57;1.58;;;1.35;;
62071;SDS011;48031;48.542;13.232;2023-07-31T14:44:00;1.40;;;1.30;;
62071;SDS011;48031;48.542;13.232;2023-07-31T14:48:02;1.35;;;1.20;;
62071;SDS011;48031;48.542;13.232;2023-07-31T14:52:04;1.98;;;1.20;;
62071;SDS011;48031;48.542;13.232;2023-07-31T14:56:08;2.22;;;1.25;;
62071;SDS011;48031;48.542;13.232;2023-07-31T15:00:10;1.40;;;1.23;;
62071;SDS011;48031;48.542;13.232;2023-07-31T15:04:12;3.30;;;1.23;;
62071;SDS011;48031;48.542;13.232;2023-07-31T15:08:15;1.20;;;1.10;;
62071;SDS011;48031;48.542;13.232;2023-07-31T15:12:17;1.65;;;1.38;;
62071;SDS011;48031;48.542;13.232;2023-07-31T15:16:19;1.50;;;1.05;;
62071;SDS011;48031;48.542;13.232;2023-07-31T15:20:22;1.55;;;1.20;;
62071;SDS011;48031;48.542;13.232;2023-07-31T15:24:24;1.20;;;1.10;;
62071;SDS011;48031;48.542;13.232;2023-07-31T15:28:26;2.42;;;1.40;;
62071;SDS011;48031;48.542;13.232;2023-07-31T15:32:27;3.60;;;1.67;;
62071;SDS011;48031;48.542;13.232;2023-07-31T15:36:30;4.03;;;1.60;;
62071;SDS011;48031;48.542;13.232;2023-07-31T15:40:33;1.30;;;1.20;;
62071;SDS011;48031;48.542;13.232;2023-07-31T15:44:36;1.52;;;1.13;;
62071;SDS011;48031;48.542;13.232;2023-07-31T15:48:38;1.88;;;1.40;;
62071;SDS011;48031;48.542;13.232;2023-07-31T15:52:40;1.90;;;1.23;;
62071;SDS011;48031;48.542;13.232;2023-07-31T15:56:42;2.75;;;1.35;;
62071;SDS011;48031;48.542;13.232;2023-07-31T16:00:44;2.05;;;1.10;;
62071;SDS011;48031;48.542;13.232;2023-07-31T16:04:47;1.60;;;1.05;;
62071;SDS011;48031;48.542;13.232;2023-07-31T16:08:49;2.03;;;1.05;;
62071;SDS011;48031;48.542;13.232;2023-07-31T16:12:51;1.13;;;1.02;;
62071;SDS011;48031;48.542;13.232;2023-07-31T16:16:53;2.40;;;1.17;;
62071;SDS011;48031;48.542;13.232;2023-07-31T16:20:55;1.40;;;1.20;;
62071;SDS011;48031;48.542;13.232;2023-07-31T16:24:57;1.17;;;1.08;;
62071;SDS011;48031;48.542;13.232;2023-07-31T16:29:00;2.25;;;1.10;;
62071;SDS011;48031;48.542;13.232;2023-07-31T16:33:01;1.58;;;1.20;;
62071;SDS011;48031;48.542;13.232;2023-07-31T16:37:04;1.77;;;1.30;;
62071;SDS011;48031;48.542;13.232;2023-07-31T16:41:06;2.00;;;1.30;;
62071;SDS011;48031;48.542;13.232;2023-07-31T16:45:08;2.33;;;1.63;;
62071;SDS011;48031;48.542;13.232;2023-07-31T16:49:10;2.45;;;1.50;;
62071;SDS011;48031;48.542;13.232;2023-07-31T16:53:13;2.38;;;1.63;;
62071;SDS011;48031;48.542;13.232;2023-07-31T16:57:15;2.10;;;1.50;;
62071;SDS011;48031;48.542;13.232;2023-07-31T17:01:17;2.85;;;1.63;;
62071;SDS011;48031;48.542;13.232;2023-07-31T17:05:19;1.73;;;1.30;;
62071;SDS011;48031;48.542;13.232;2023-07-31T17:09:21;1.63;;;1.40;;
62071;SDS011;48031;48.542;13.232;2023-07-31T17:13:24;2.50;;;1.63;;
62071;SDS011;48031;48.542;13.232;2023-07-31T17:17:26;2.25;;;1.48;;
62071;SDS011;48031;48.542;13.232;2023-07-31T17:21:30;1.83;;;1.30;;
62071;SDS011;48031;48.542;13.232;2023-07-31T17:25:32;2.00;;;1.58;;
62071;SDS011;48031;48.542;13.232;2023-07-31T17:29:34;1.40;;;1.17;;
62071;SDS011;48031;48.542;13.232;2023-07-31T17:33:36;2.15;;;1.50;;
62071;SDS011;48031;48.542;13.232;2023-07-31T17:37:38;2.90;;;1.73;;
62071;SDS011;48031;48.542;13.232;2023-07-31T17:41:40;2.33;;;1.50;;
62071;SDS011;48031;48.542;13.232;2023-07-31T17:45:42;2.05;;;1.50;;
62071;SDS011;48031;48.542;13.232;2023-07-31T17:49:44;1.50;;;1.20;;
62071;SDS011;48031;48.542;13.232;2023-07-31T17:53:47;1.80;;;1.45;;
62071;SDS011;48031;48.542;13.232;2023-07-31T17:57:49;2.67;;;1.40;;
62071;SDS011;48031;48.542;13.232;2023-07-31T18:01:50;2.60;;;1.52;;
62071;SDS011;48031;48.542;13.232;2023-07-31T18:05:52;1.88;;;1.30;;
62071;SDS011;48031;48.542;13.232;2023-07-31T18:09:54;1.92;;;1.30;;
62071;SDS011;48031;48.542;13.232;2023-07-31T18:13:57;2.42;;;1.60;;
62071;SDS011;48031;48.542;13.232;2023-07-31T18:18:00;1.65;;;1.33;;
62071;SDS011;48031;48.542;13.232;2023-07-31T18:22:02;2.60;;;1.52;;
62071;SDS011;48031;48.542;13.232;2023-07-31T18:26:04;2.33;;;1.60;;
62071;SDS011;48031;48.542;13.232;2023-07-31T18:30:07;1.48;;;1.17;;
62071;SDS011;48031;48.542;13.232;2023-07-31T18:34:10;2.00;;;1.65;;
62071;SDS011;48031;48.542;13.232;2023-07-31T18:38:13;1.77;;;1.42;;
62071;SDS011;48031;48.542;13.232;2023-07-31T18:42:15;2.92;;;1.35;;
62071;SDS011;48031;48.542;13.232;2023-07-31T18:46:18;4.45;;;1.30;;
62071;SDS011;48031;48.542;13.232;2023-07-31T18:50:19;1.95;;;1.33;;
62071;SDS011;48031;48.542;13.232;2023-07-31T18:54:21;2.28;;;1.30;;
62071;SDS011;48031;48.542;13.232;2023-07-31T18:58:23;1.92;;;1.23;;
62071;SDS011;48031;48.542;13.232;2023-07-31T19:02:25;1.55;;;1.20;;
62071;SDS011;48031;48.542;13.232;2023-07-31T19:06:27;6.00;;;1.48;;
62071;SDS011;48031;48.542;13.232;2023-07-31T19:10:33;3.03;;;1.67;;
62071;SDS011;48031;48.542;13.232;2023-07-31T19:14:37;3.42;;;2.00;;
62071;SDS011;48031;48.542;13.232;2023-07-31T19:18:39;3.65;;;1.70;;
62071;SDS011;48031;48.542;13.232;2023-07-31T19:22:41;3.25;;;1.60;;
62071;SDS011;48031;48.542;13.232;2023-07-31T19:26:42;3.90;;;1.80;;
62071;SDS011;48031;48.542;13.232;2023-07-31T19:30:45;3.03;;;1.60;;
62071;SDS011;48031;48.542;13.232;2023-07-31T19:34:47;2.13;;;1.50;;
62071;SDS011;48031;48.542;13.232;2023-07-31T19:38:50;1.80;;;1.40;;
62071;SDS011;48031;48.542;13.232;2023-07-31T19:42:52;2.30;;;1.52;;
62071;SDS011;48031;48.542;13.232;2023-07-31T19:46:56;1.73;;;1.60;;
62071;SDS011;48031;48.542;13.232;2023-07-31T19:50:58;1.77;;;1.42;;
62071;SDS011;48031;48.542;13.232;2023-07-31T19:54:59;2.45;;;1.73;;
62071;SDS011;48031;48.542;13.232;2023-07-31T19:59:01;3.05;;;1.60;;
62071;SDS011;48031;48.542;13.232;2023-07-31T20:03:04;2.45;;;1.80;;
62071;SDS011;48031;48.542;13.232;2023-07-31T20:07:06;2.63;;;1.60;;
62071;SDS011;48031;48.542;13.232;2023-07-31T20:11:08;4.38;;;1.70;;
62071;SDS011;48031;48.542;13.232;2023-07-31T20:15:18;6.57;;;1.80;;
62071;SDS011;48031;48.542;13.232;2023-07-31T20:19:21;6.03;;;1.65;;
62071;SDS011;48031;48.542;13.232;2023-07-31T20:23:24;1.73;;;1.40;;
62071;SDS011;48031;48.542;13.232;2023-07-31T20:27:43;2.05;;;1.65;;
62071;SDS011;48031;48.542;13.232;2023-07-31T20:31:45;1.50;;;1.30;;
62071;SDS011;48031;48.542;13.232;2023-07-31T20:35:47;5.35;;;1.67;;
62071;SDS011;48031;48.542;13.232;2023-07-31T20:39:49;3.45;;;1.50;;
62071;SDS011;48031;48.542;13.232;2023-07-31T20:43:52;1.77;;;1.58;;
62071;SDS011;48031;48.542;13.232;2023-07-31T20:47:54;3.20;;;1.80;;
62071;SDS011;48031;48.542;13.232;2023-07-31T20:51:56;2.50;;;1.55;;
62071;SDS011;48031;48.542;13.232;2023-07-31T20:55:59;3.38;;;1.70;;
62071;SDS011;48031;48.542;13.232;2023-07-31T21:00:01;2.10;;;1.67;;
62071;SDS011;48031;48.542;13.232;2023-07-31T21:04:03;3.90;;;1.55;;
62071;SDS011;48031;48.542;13.232;2023-07-31T21:08:07;3.30;;;1.75;;
62071;SDS011;48031;48.542;13.232;2023-07-31T21:12:10;2.80;;;1.48;;
62071;SDS011;48031;48.542;13.232;2023-07-31T21:16:13;2.50;;;1.35;;
62071;SDS011;48031;48.542;13.232;2023-07-31T21:20:15;1.60;;;1.30;;
62071;SDS011;48031;48.542;13.232;2023-07-31T21:24:17;2.45;;;1.50;;
62071;SDS011;48031;48.542;13.232;2023-07-31T21:28:19;3.17;;;1.83;;
62071;SDS011;48031;48.542;13.232;2023-07-31T21:32:21;2.80;;;1.50;;
62071;SDS011;48031;48.542;13.232;2023-07-31T21:36:23;2.05;;;1.60;;
62071;SDS011;48031;48.542;13.232;2023-07-31T21:40:25;2.67;;;1.70;;
62071;SDS011;48031;48.542;13.232;2023-07-31T21:44:28;2.78;;;1.52;;
62071;SDS011;48031;48.542;13.232;2023-07-31T21:48:31;2.17;;;1.60;;
62071;SDS011;48031;48.542;13.232;2023-07-31T21:52:33;2.47;;;1.70;;
62071;SDS011;48031;48.542;13.232;2023-07-31T21:56:35;3.95;;;1.80;;
62071;SDS011;48031;48.542;13.232;2023-07-31T22:00:37;2.58;;;1.70;;
62071;SDS011;48031;48.542;13.232;2023-07-31T22:04:39;2.10;;;1.45;;
62071;SDS011;48031;48.542;13.232;2023-07-31T22:08:45;2.22;;;1.67;;
62071;SDS011;48031;48.542;13.232;2023-07-31T22:12:48;2.50;;;1.70;;
62071;SDS011;48031;48.542;13.232;2023-07-31T22:16:50;2.03;;;1.42;;
62071;SDS011;48031;48.542;13.232;2023-07-31T22:20:52;2.70;;;1.55;;
62071;SDS011;48031;48.542;13.232;2023-07-31T22:24:54;2.35;;;1.70;;
62071;SDS011;48031;48.542;13.232;2023-07-31T22:28:56;3.13;;;1.70;;
62071;SDS011;48031;48.542;13.232;2023-07-31T22:32:58;3.72;;;1.63;;
62071;SDS011;48031;48.542;13.232;2023-07-31T22:37:00;4.07;;;1.90;;
62071;SDS011;48031;48.542;13.232;2023-07-31T22:41:03;2.83;;;1.80;;
62071;SDS011;48031;48.542;13.232;2023-07-31T22:45:07;2.85;;;1.77;;
62071;SDS011;48031;48.542;13.232;2023-07-31T22:49:09;4.55;;;2.10;;
62071;SDS011;48031;48.542;13.232;2023-07-31T22:53:11;6.57;;;2.00;;
62071;SDS011;48031;48.542;13.232;2023-07-31T22:57:12;4.20;;;1.75;;
62071;SDS011;48031;48.542;13.232;2023-07-31T23:01:15;2.20;;;1.65;;
62071;SDS011;48031;48.542;13.232;2023-07-31T23:05:19;3.00;;;1.60;;
62071;SDS011;48031;48.542;13.232;2023-07-31T23:09:21;4.63;;;1.80;;
62071;SDS011;48031;48.542;13.232;2023-07-31T23:13:24;2.45;;;1.90;;
62071;SDS011;48031;48.542;13.232;2023-07-31T23:17:26;5.13;;;1.70;;
62071;SDS011;48031;48.542;13.232;2023-07-31T23:21:27;2.20;;;1.88;;
62071;SDS011;48031;48.542;13.232;2023-07-31T23:25:36;3.58;;;2.28;;
62071;SDS011;48031;48.542;13.232;2023-07-31T23:29:38;3.42;;;2.25;;
62071;SDS011;48031;48.542;13.232;2023-07-31T23:33:40;3.45;;;2.50;;
62071;SDS011;48031;48.542;13.232;2023-07-31T23:37:43;3.22;;;2.72;;
62071;SDS011;48031;48.542;13.232;2023-07-31T23:41:46;4.25;;;2.25;;
62071;SDS011;48031;48.542;13.232;2023-07-31T23:45:48;5.38;;;2.50;;
62071;SDS011;48031;48.542;13.232;2023-07-31T23:49:50;3.28;;;2.40;;
62071;SDS011;48031;48.542;13.232;2023-07-31T23:53:52;3.13;;;2.20;;
62071;SDS011;48031;48.542;13.232;2023-07-31T23:57:55;3.78;;;2.17;;
